sensor_id;sensor_type;location;lat;lon;timestamp;pressure;altitude;pressure_sealevel;temperature;humidity
39051;BME280;24805;55.852;37.644;2022-08-21T00:03:01;100312.41;;;18.27;38.82
39051;BME280;24805;55.852;37.644;2022-08-21T00:08:04;100304.78;;;18.11;39.00
39051;BME280;24805;55.852;37.644;2022-08-21T00:13:07;100304.16;;;18.02;39.27
39051;BME280;24805;55.852;37.644;2022-08-21T00:18:10;100301.50;;;17.96;39.79
39051;BME280;24805;55.852;37.644;2022-08-21T00:23:12;100299.63;;;17.89;39.48
39051;BME280;24805;55.852;37.644;2022-08-21T00:28:15;100301.47;;;17.82;39.74
39051;BME280;24805;55.852;37.644;2022-08-21T00:33:17;100302.94;;;17.78;39.64
39051;BME280;24805;55.852;37.644;2022-08-21T00:38:19;100301.69;;;17.74;39.85
39051;BME280;24805;55.852;37.644;2022-08-21T00:43:28;100295.47;;;17.80;39.89
39051;BME280;24805;55.852;37.644;2022-08-21T00:48:32;100291.50;;;17.63;40.22
39051;BME280;24805;55.852;37.644;2022-08-21T00:53:37;100285.31;;;17.63;40.21
39051;BME280;24805;55.852;37.644;2022-08-21T00:58:41;100287.38;;;17.61;39.94
39051;BME280;24805;55.852;37.644;2022-08-21T01:03:45;100267.13;;;17.45;40.20
39051;BME280;24805;55.852;37.644;2022-08-21T01:08:48;100288.63;;;17.51;40.41
39051;BME280;24805;55.852;37.644;2022-08-21T01:13:50;100281.16;;;17.40;40.23
39051;BME280;24805;55.852;37.644;2022-08-21T01:18:53;100283.22;;;17.45;40.36
39051;BME280;24805;55.852;37.644;2022-08-21T01:23:56;100295.41;;;17.41;40.63
39051;BME280;24805;55.852;37.644;2022-08-21T01:29:03;100293.53;;;17.41;40.88
39051;BME280;24805;55.852;37.644;2022-08-21T01:34:08;100293.13;;;17.31;40.85
39051;BME280;24805;55.852;37.644;2022-08-21T01:39:11;100284.03;;;17.26;40.91
39051;BME280;24805;55.852;37.644;2022-08-21T01:44:13;100282.75;;;17.21;41.24
39051;BME280;24805;55.852;37.644;2022-08-21T01:49:16;100279.25;;;17.14;41.04
39051;BME280;24805;55.852;37.644;2022-08-21T01:54:19;100286.88;;;17.11;41.08
39051;BME280;24805;55.852;37.644;2022-08-21T01:59:23;100286.25;;;17.09;41.42
39051;BME280;24805;55.852;37.644;2022-08-21T02:04:25;100291.75;;;17.01;41.43
39051;BME280;24805;55.852;37.644;2022-08-21T02:09:27;100277.34;;;16.95;41.64
39051;BME280;24805;55.852;37.644;2022-08-21T02:14:31;100266.53;;;16.82;41.82
39051;BME280;24805;55.852;37.644;2022-08-21T02:19:34;100284.31;;;16.90;41.76
39051;BME280;24805;55.852;37.644;2022-08-21T02:24:41;100295.88;;;16.90;41.44
39051;BME280;24805;55.852;37.644;2022-08-21T02:29:56;100307.03;;;16.94;41.60
39051;BME280;24805;55.852;37.644;2022-08-21T02:34:59;100303.94;;;16.97;41.26
39051;BME280;24805;55.852;37.644;2022-08-21T02:40:01;100300.44;;;17.03;41.40
39051;BME280;24805;55.852;37.644;2022-08-21T02:45:04;100298.81;;;17.08;41.18
39051;BME280;24805;55.852;37.644;2022-08-21T02:50:07;100299.88;;;17.14;40.82
39051;BME280;24805;55.852;37.644;2022-08-21T02:55:09;100302.56;;;17.20;41.05
39051;BME280;24805;55.852;37.644;2022-08-21T03:00:13;100306.72;;;17.30;40.33
39051;BME280;24805;55.852;37.644;2022-08-21T03:05:17;100314.81;;;17.36;40.18
39051;BME280;24805;55.852;37.644;2022-08-21T03:10:21;100310.88;;;17.45;40.55
39051;BME280;24805;55.852;37.644;2022-08-21T03:15:23;100299.78;;;17.55;40.73
39051;BME280;24805;55.852;37.644;2022-08-21T03:20:27;100299.41;;;17.71;40.47
39051;BME280;24805;55.852;37.644;2022-08-21T03:25:30;100307.88;;;17.75;39.98
39051;BME280;24805;55.852;37.644;2022-08-21T03:30:45;100313.25;;;17.81;40.02
39051;BME280;24805;55.852;37.644;2022-08-21T03:35:58;100315.94;;;18.08;39.46
39051;BME280;24805;55.852;37.644;2022-08-21T03:41:03;100317.19;;;18.12;39.29
39051;BME280;24805;55.852;37.644;2022-08-21T03:46:07;100330.41;;;18.27;39.22
39051;BME280;24805;55.852;37.644;2022-08-21T03:51:09;100327.88;;;18.45;38.73
39051;BME280;24805;55.852;37.644;2022-08-21T03:56:12;100321.06;;;18.62;38.41
39051;BME280;24805;55.852;37.644;2022-08-21T04:01:14;100314.66;;;18.70;38.38
39051;BME280;24805;55.852;37.644;2022-08-21T04:06:16;100313.75;;;18.82;37.83
39051;BME280;24805;55.852;37.644;2022-08-21T04:11:19;100318.09;;;18.97;37.77
39051;BME280;24805;55.852;37.644;2022-08-21T04:16:21;100304.97;;;19.13;37.52
39051;BME280;24805;55.852;37.644;2022-08-21T04:21:24;100309.81;;;19.36;37.00
39051;BME280;24805;55.852;37.644;2022-08-21T04:26:27;100306.59;;;19.59;36.74
39051;BME280;24805;55.852;37.644;2022-08-21T04:31:29;100311.06;;;19.72;36.07
39051;BME280;24805;55.852;37.644;2022-08-21T04:36:33;100314.66;;;19.90;36.12
39051;BME280;24805;55.852;37.644;2022-08-21T04:41:35;100313.72;;;20.03;35.46
39051;BME280;24805;55.852;37.644;2022-08-21T04:46:38;100322.16;;;20.13;35.66
39051;BME280;24805;55.852;37.644;2022-08-21T04:51:40;100323.88;;;20.26;35.09
39051;BME280;24805;55.852;37.644;2022-08-21T04:56:48;100332.69;;;20.40;35.09
39051;BME280;24805;55.852;37.644;2022-08-21T05:01:52;100308.59;;;20.20;35.25
39051;BME280;24805;55.852;37.644;2022-08-21T05:06:58;100328.06;;;20.47;34.66
39051;BME280;24805;55.852;37.644;2022-08-21T05:12:02;100313.50;;;20.73;34.34
39051;BME280;24805;55.852;37.644;2022-08-21T05:17:04;100308.09;;;21.57;32.68
39051;BME280;24805;55.852;37.644;2022-08-21T05:22:07;100311.28;;;22.54;31.64
39051;BME280;24805;55.852;37.644;2022-08-21T05:27:11;100313.38;;;23.44;29.66
39051;BME280;24805;55.852;37.644;2022-08-21T05:32:18;100305.38;;;23.94;29.33
39051;BME280;24805;55.852;37.644;2022-08-21T05:37:21;100306.75;;;24.47;28.52
39051;BME280;24805;55.852;37.644;2022-08-21T05:42:23;100305.28;;;25.00;27.62
39051;BME280;24805;55.852;37.644;2022-08-21T05:47:25;100308.00;;;25.70;26.08
39051;BME280;24805;55.852;37.644;2022-08-21T05:52:27;100286.38;;;25.59;25.61
39051;BME280;24805;55.852;37.644;2022-08-21T05:57:29;100279.69;;;25.66;25.92
39051;BME280;24805;55.852;37.644;2022-08-21T06:02:31;100295.97;;;25.93;25.35
39051;BME280;24805;55.852;37.644;2022-08-21T06:07:34;100282.97;;;26.37;24.65
39051;BME280;24805;55.852;37.644;2022-08-21T06:12:36;100295.75;;;26.89;23.53
39051;BME280;24805;55.852;37.644;2022-08-21T06:17:43;100287.16;;;27.23;23.02
39051;BME280;24805;55.852;37.644;2022-08-21T06:22:45;100287.28;;;27.68;22.28
39051;BME280;24805;55.852;37.644;2022-08-21T06:27:47;100281.53;;;27.80;21.63
39051;BME280;24805;55.852;37.644;2022-08-21T06:32:49;100257.03;;;27.90;21.25
39051;BME280;24805;55.852;37.644;2022-08-21T06:37:52;100275.28;;;27.95;21.35
39051;BME280;24805;55.852;37.644;2022-08-21T06:42:54;100276.31;;;28.50;20.99
39051;BME280;24805;55.852;37.644;2022-08-21T06:47:56;100269.69;;;29.30;20.14
39051;BME280;24805;55.852;37.644;2022-08-21T06:53:04;100273.44;;;29.44;19.03
39051;BME280;24805;55.852;37.644;2022-08-21T06:58:07;100261.25;;;29.22;19.14
39051;BME280;24805;55.852;37.644;2022-08-21T07:03:36;100270.94;;;29.53;19.99
39051;BME280;24805;55.852;37.644;2022-08-21T07:08:39;100256.47;;;30.15;18.51
39051;BME280;24805;55.852;37.644;2022-08-21T07:13:41;100263.00;;;30.91;17.68
39051;BME280;24805;55.852;37.644;2022-08-21T07:18:43;100262.06;;;31.38;17.29
39051;BME280;24805;55.852;37.644;2022-08-21T07:23:49;100256.69;;;31.84;16.52
39051;BME280;24805;55.852;37.644;2022-08-21T07:28:52;100255.34;;;32.14;15.91
39051;BME280;24805;55.852;37.644;2022-08-21T07:33:55;100254.03;;;32.39;15.67
39051;BME280;24805;55.852;37.644;2022-08-21T07:38:57;100247.44;;;32.81;15.37
39051;BME280;24805;55.852;37.644;2022-08-21T07:44:00;100246.28;;;33.10;14.44
39051;BME280;24805;55.852;37.644;2022-08-21T07:49:02;100248.25;;;32.41;14.39
39051;BME280;24805;55.852;37.644;2022-08-21T07:54:04;100248.66;;;32.62;14.45
39051;BME280;24805;55.852;37.644;2022-08-21T07:59:08;100246.81;;;32.98;14.03
39051;BME280;24805;55.852;37.644;2022-08-21T08:04:10;100238.41;;;33.53;13.86
39051;BME280;24805;55.852;37.644;2022-08-21T08:09:12;100234.94;;;34.54;13.01
39051;BME280;24805;55.852;37.644;2022-08-21T08:14:15;100237.94;;;34.83;12.15
39051;BME280;24805;55.852;37.644;2022-08-21T08:19:17;100231.63;;;35.17;12.49
39051;BME280;24805;55.852;37.644;2022-08-21T08:24:20;100226.13;;;35.00;12.22
39051;BME280;24805;55.852;37.644;2022-08-21T08:29:22;100227.44;;;34.46;12.03
39051;BME280;24805;55.852;37.644;2022-08-21T08:34:24;100195.81;;;33.73;12.74
39051;BME280;24805;55.852;37.644;2022-08-21T08:39:27;100201.53;;;34.07;12.62
39051;BME280;24805;55.852;37.644;2022-08-21T08:44:30;100210.72;;;34.91;12.46
39051;BME280;24805;55.852;37.644;2022-08-21T08:49:55;100190.47;;;35.12;12.11
39051;BME280;24805;55.852;37.644;2022-08-21T08:55:08;100190.22;;;34.66;12.32
39051;BME280;24805;55.852;37.644;2022-08-21T09:00:14;100200.22;;;34.44;11.91
39051;BME280;24805;55.852;37.644;2022-08-21T09:05:28;100189.38;;;35.95;12.25
39051;BME280;24805;55.852;37.644;2022-08-21T09:26:49;100196.88;;;34.56;11.57
39051;BME280;24805;55.852;37.644;2022-08-21T09:31:56;100175.97;;;33.53;11.82
39051;BME280;24805;55.852;37.644;2022-08-21T09:36:58;100173.44;;;33.66;12.24
39051;BME280;24805;55.852;37.644;2022-08-21T09:42:07;100179.22;;;33.33;12.09
39051;BME280;24805;55.852;37.644;2022-08-21T09:47:11;100186.22;;;32.40;12.50
39051;BME280;24805;55.852;37.644;2022-08-21T09:52:20;100178.47;;;32.01;13.13
39051;BME280;24805;55.852;37.644;2022-08-21T09:57:27;100186.84;;;32.23;12.93
39051;BME280;24805;55.852;37.644;2022-08-21T10:02:51;100169.03;;;32.75;13.02
39051;BME280;24805;55.852;37.644;2022-08-21T10:07:53;100154.19;;;33.21;12.52
39051;BME280;24805;55.852;37.644;2022-08-21T10:18:16;100170.72;;;32.85;12.84
39051;BME280;24805;55.852;37.644;2022-08-21T10:23:46;100137.41;;;32.23;12.97
39051;BME280;24805;55.852;37.644;2022-08-21T10:29:08;100154.56;;;32.01;13.39
39051;BME280;24805;55.852;37.644;2022-08-21T10:34:30;100155.00;;;31.62;13.69
39051;BME280;24805;55.852;37.644;2022-08-21T10:39:56;100147.47;;;31.22;13.45
39051;BME280;24805;55.852;37.644;2022-08-21T10:55:26;100143.72;;;29.90;14.46
39051;BME280;24805;55.852;37.644;2022-08-21T11:00:43;100146.56;;;29.51;14.92
39051;BME280;24805;55.852;37.644;2022-08-21T11:05:53;100136.78;;;29.73;14.75
39051;BME280;24805;55.852;37.644;2022-08-21T11:11:12;100141.78;;;30.38;14.75
39051;BME280;24805;55.852;37.644;2022-08-21T11:16:41;100133.56;;;30.62;14.00
39051;BME280;24805;55.852;37.644;2022-08-21T11:21:56;100129.09;;;30.23;14.35
39051;BME280;24805;55.852;37.644;2022-08-21T11:48:50;100136.72;;;29.50;14.86
39051;BME280;24805;55.852;37.644;2022-08-21T11:59:13;100144.16;;;29.05;15.16
39051;BME280;24805;55.852;37.644;2022-08-21T12:04:29;100130.41;;;28.81;15.55
39051;BME280;24805;55.852;37.644;2022-08-21T12:09:35;100133.31;;;28.45;15.25
39051;BME280;24805;55.852;37.644;2022-08-21T12:14:49;100136.09;;;28.35;15.89
39051;BME280;24805;55.852;37.644;2022-08-21T12:19:59;100128.53;;;28.12;16.12
39051;BME280;24805;55.852;37.644;2022-08-21T12:25:10;100135.69;;;27.88;15.72
39051;BME280;24805;55.852;37.644;2022-08-21T12:35:47;100107.50;;;28.12;15.97
39051;BME280;24805;55.852;37.644;2022-08-21T12:46:04;100111.56;;;28.30;15.80
39051;BME280;24805;55.852;37.644;2022-08-21T12:51:14;100107.94;;;28.45;15.87
39051;BME280;24805;55.852;37.644;2022-08-21T12:56:20;100100.94;;;28.24;16.25
39051;BME280;24805;55.852;37.644;2022-08-21T13:01:30;100110.47;;;28.31;16.37
39051;BME280;24805;55.852;37.644;2022-08-21T13:06:44;100144.03;;;28.32;16.93
39051;BME280;24805;55.852;37.644;2022-08-21T13:11:48;100117.75;;;28.41;16.83
39051;BME280;24805;55.852;37.644;2022-08-21T13:16:57;100118.59;;;28.41;17.02
39051;BME280;24805;55.852;37.644;2022-08-21T13:22:01;100091.94;;;28.23;17.13
39051;BME280;24805;55.852;37.644;2022-08-21T13:27:27;100112.09;;;28.32;17.58
39051;BME280;24805;55.852;37.644;2022-08-21T13:32:31;100126.88;;;28.16;17.67
39051;BME280;24805;55.852;37.644;2022-08-21T13:37:39;100110.78;;;28.20;17.83
39051;BME280;24805;55.852;37.644;2022-08-21T13:42:46;100089.88;;;27.90;18.02
39051;BME280;24805;55.852;37.644;2022-08-21T13:47:48;100091.28;;;27.77;18.06
39051;BME280;24805;55.852;37.644;2022-08-21T13:52:57;100104.88;;;27.82;18.33
39051;BME280;24805;55.852;37.644;2022-08-21T13:58:02;100084.22;;;27.66;18.75
39051;BME280;24805;55.852;37.644;2022-08-21T14:03:08;100088.84;;;27.65;18.82
39051;BME280;24805;55.852;37.644;2022-08-21T14:18:48;100088.84;;;27.60;19.52
39051;BME280;24805;55.852;37.644;2022-08-21T14:29:09;100073.31;;;27.56;19.62
39051;BME280;24805;55.852;37.644;2022-08-21T14:34:12;100065.97;;;27.41;19.51
39051;BME280;24805;55.852;37.644;2022-08-21T14:39:21;100071.16;;;27.32;20.12
39051;BME280;24805;55.852;37.644;2022-08-21T14:44:24;100085.34;;;27.29;20.38
39051;BME280;24805;55.852;37.644;2022-08-21T14:49:27;100084.22;;;27.20;20.38
39051;BME280;24805;55.852;37.644;2022-08-21T14:54:31;100073.91;;;27.17;20.58
39051;BME280;24805;55.852;37.644;2022-08-21T14:59:34;100083.69;;;27.23;20.50
39051;BME280;24805;55.852;37.644;2022-08-21T15:04:39;100089.69;;;27.30;20.68
39051;BME280;24805;55.852;37.644;2022-08-21T15:09:43;100079.34;;;27.32;20.38
39051;BME280;24805;55.852;37.644;2022-08-21T15:14:45;100080.16;;;27.28;20.62
39051;BME280;24805;55.852;37.644;2022-08-21T15:19:48;100077.69;;;27.21;20.81
39051;BME280;24805;55.852;37.644;2022-08-21T15:24:50;100077.16;;;27.09;20.87
39051;BME280;24805;55.852;37.644;2022-08-21T15:29:53;100074.97;;;27.01;21.33
39051;BME280;24805;55.852;37.644;2022-08-21T15:34:57;100079.06;;;26.98;21.52
39051;BME280;24805;55.852;37.644;2022-08-21T15:39:59;100073.88;;;26.92;21.31
39051;BME280;24805;55.852;37.644;2022-08-21T15:45:04;100081.22;;;26.86;21.86
39051;BME280;24805;55.852;37.644;2022-08-21T15:50:08;100076.84;;;26.80;22.26
39051;BME280;24805;55.852;37.644;2022-08-21T15:55:11;100074.38;;;26.68;22.46
39051;BME280;24805;55.852;37.644;2022-08-21T16:00:17;100071.38;;;26.60;22.88
39051;BME280;24805;55.852;37.644;2022-08-21T16:05:21;100061.28;;;26.35;23.04
39051;BME280;24805;55.852;37.644;2022-08-21T16:10:24;100066.88;;;26.18;23.04
39051;BME280;24805;55.852;37.644;2022-08-21T16:15:31;100064.13;;;26.08;23.11
39051;BME280;24805;55.852;37.644;2022-08-21T16:20:34;100072.53;;;25.96;23.27
39051;BME280;24805;55.852;37.644;2022-08-21T16:25:37;100068.13;;;25.85;23.33
39051;BME280;24805;55.852;37.644;2022-08-21T16:30:43;100066.13;;;25.70;23.25
39051;BME280;24805;55.852;37.644;2022-08-21T16:35:46;100058.41;;;25.52;23.44
39051;BME280;24805;55.852;37.644;2022-08-21T16:40:49;100059.91;;;25.38;23.39
39051;BME280;24805;55.852;37.644;2022-08-21T16:45:53;100054.94;;;25.25;23.85
39051;BME280;24805;55.852;37.644;2022-08-21T16:50:57;100057.34;;;25.16;24.02
39051;BME280;24805;55.852;37.644;2022-08-21T16:56:00;100051.25;;;25.04;24.55
39051;BME280;24805;55.852;37.644;2022-08-21T17:01:06;100048.00;;;25.02;24.87
39051;BME280;24805;55.852;37.644;2022-08-21T17:06:09;100056.53;;;24.89;24.65
39051;BME280;24805;55.852;37.644;2022-08-21T17:16:41;100051.00;;;24.73;24.85
39051;BME280;24805;55.852;37.644;2022-08-21T17:21:45;100070.53;;;24.76;25.01
39051;BME280;24805;55.852;37.644;2022-08-21T17:26:48;100069.16;;;24.73;24.99
39051;BME280;24805;55.852;37.644;2022-08-21T17:31:50;100062.34;;;24.70;25.05
39051;BME280;24805;55.852;37.644;2022-08-21T17:36:52;100049.03;;;24.69;25.08
39051;BME280;24805;55.852;37.644;2022-08-21T17:41:55;100056.06;;;24.65;25.34
39051;BME280;24805;55.852;37.644;2022-08-21T17:47:00;100055.47;;;24.63;25.02
39051;BME280;24805;55.852;37.644;2022-08-21T17:52:03;100053.53;;;24.58;25.16
39051;BME280;24805;55.852;37.644;2022-08-21T17:57:06;100058.94;;;24.53;25.24
39051;BME280;24805;55.852;37.644;2022-08-21T18:02:11;100066.50;;;24.51;25.17
39051;BME280;24805;55.852;37.644;2022-08-21T18:07:21;100063.72;;;24.46;25.32
39051;BME280;24805;55.852;37.644;2022-08-21T18:12:34;100066.19;;;24.48;25.11
39051;BME280;24805;55.852;37.644;2022-08-21T18:17:36;100055.78;;;24.39;24.89
39051;BME280;24805;55.852;37.644;2022-08-21T18:22:39;100062.41;;;24.49;24.78
39051;BME280;24805;55.852;37.644;2022-08-21T18:27:42;100063.53;;;24.53;24.58
39051;BME280;24805;55.852;37.644;2022-08-21T18:32:47;100061.59;;;24.48;24.80
39051;BME280;24805;55.852;37.644;2022-08-21T18:37:49;100060.19;;;24.46;24.69
39051;BME280;24805;55.852;37.644;2022-08-21T18:42:52;100060.69;;;24.43;24.57
39051;BME280;24805;55.852;37.644;2022-08-21T18:47:57;100072.88;;;24.40;24.66
39051;BME280;24805;55.852;37.644;2022-08-21T18:52:59;100076.13;;;24.37;24.80
39051;BME280;24805;55.852;37.644;2022-08-21T18:58:02;100067.34;;;24.30;24.98
39051;BME280;24805;55.852;37.644;2022-08-21T19:03:04;100054.69;;;24.14;24.99
39051;BME280;24805;55.852;37.644;2022-08-21T19:08:10;100076.94;;;24.16;25.22
39051;BME280;24805;55.852;37.644;2022-08-21T19:13:15;100078.25;;;24.13;25.43
39051;BME280;24805;55.852;37.644;2022-08-21T19:18:20;100083.59;;;24.08;25.30
39051;BME280;24805;55.852;37.644;2022-08-21T19:23:29;100044.66;;;23.92;25.38
39051;BME280;24805;55.852;37.644;2022-08-21T19:28:41;100074.72;;;24.13;25.32
39051;BME280;24805;55.852;37.644;2022-08-21T19:33:51;100075.47;;;24.08;25.31
39051;BME280;24805;55.852;37.644;2022-08-21T19:39:01;100074.72;;;23.91;25.53
39051;BME280;24805;55.852;37.644;2022-08-21T19:44:26;100073.91;;;23.90;25.57
39051;BME280;24805;55.852;37.644;2022-08-21T19:49:32;100067.84;;;23.83;25.56
39051;BME280;24805;55.852;37.644;2022-08-21T19:54:35;100074.00;;;23.79;25.95
39051;BME280;24805;55.852;37.644;2022-08-21T19:59:38;100065.25;;;23.72;25.59
39051;BME280;24805;55.852;37.644;2022-08-21T20:04:41;100066.63;;;23.74;25.77
39051;BME280;24805;55.852;37.644;2022-08-21T20:09:56;100066.06;;;23.72;26.01
39051;BME280;24805;55.852;37.644;2022-08-21T20:14:59;100075.84;;;23.73;25.94
39051;BME280;24805;55.852;37.644;2022-08-21T20:20:04;100073.28;;;23.66;26.08
39051;BME280;24805;55.852;37.644;2022-08-21T20:25:07;100077.81;;;23.61;26.19
39051;BME280;24805;55.852;37.644;2022-08-21T20:30:11;100084.25;;;23.55;26.33
39051;BME280;24805;55.852;37.644;2022-08-21T20:35:14;100063.06;;;23.35;26.66
39051;BME280;24805;55.852;37.644;2022-08-21T20:40:16;100078.50;;;23.34;26.53
39051;BME280;24805;55.852;37.644;2022-08-21T20:45:27;100085.03;;;23.38;26.51
39051;BME280;24805;55.852;37.644;2022-08-21T20:50:35;100088.41;;;23.29;26.99
39051;BME280;24805;55.852;37.644;2022-08-21T20:55:43;100088.00;;;23.20;27.11
39051;BME280;24805;55.852;37.644;2022-08-21T21:00:48;100074.31;;;22.93;27.52
39051;BME280;24805;55.852;37.644;2022-08-21T21:06:00;100097.19;;;23.02;27.42
39051;BME280;24805;55.852;37.644;2022-08-21T21:11:10;100092.44;;;22.93;27.81
39051;BME280;24805;55.852;37.644;2022-08-21T21:16:35;100083.84;;;22.96;27.51
39051;BME280;24805;55.852;37.644;2022-08-21T21:21:53;100085.53;;;22.85;27.55
39051;BME280;24805;55.852;37.644;2022-08-21T21:27:02;100081.47;;;22.71;28.19
39051;BME280;24805;55.852;37.644;2022-08-21T21:32:12;100080.13;;;22.57;28.17
39051;BME280;24805;55.852;37.644;2022-08-21T21:37:30;100087.19;;;22.58;28.13
39051;BME280;24805;55.852;37.644;2022-08-21T22:08:52;100080.16;;;22.45;29.07
39051;BME280;24805;55.852;37.644;2022-08-21T22:14:11;100092.44;;;22.36;29.09
39051;BME280;24805;55.852;37.644;2022-08-21T22:19:26;100094.56;;;22.34;29.19
39051;BME280;24805;55.852;37.644;2022-08-21T22:24:35;100095.88;;;22.20;29.37
39051;BME280;24805;55.852;37.644;2022-08-21T22:35:07;100093.03;;;22.26;29.03
39051;BME280;24805;55.852;37.644;2022-08-21T22:40:30;100084.75;;;22.16;29.63
39051;BME280;24805;55.852;37.644;2022-08-21T22:46:03;100083.19;;;22.20;29.85
39051;BME280;24805;55.852;37.644;2022-08-21T22:51:10;100082.88;;;22.05;30.65
39051;BME280;24805;55.852;37.644;2022-08-21T22:56:30;100089.59;;;22.03;30.12
39051;BME280;24805;55.852;37.644;2022-08-21T23:01:42;100093.78;;;21.98;30.81
39051;BME280;24805;55.852;37.644;2022-08-21T23:06:49;100095.34;;;21.83;31.10
39051;BME280;24805;55.852;37.644;2022-08-21T23:12:48;100098.50;;;22.03;30.20
39051;BME280;24805;55.852;37.644;2022-08-21T23:18:23;100108.50;;;21.91;30.62
39051;BME280;24805;55.852;37.644;2022-08-21T23:23:30;100097.13;;;21.65;31.66
39051;BME280;24805;55.852;37.644;2022-08-21T23:34:09;100098.31;;;21.70;31.36
39051;BME280;24805;55.852;37.644;2022-08-21T23:39:41;100103.25;;;21.73;31.16
39051;BME280;24805;55.852;37.644;2022-08-21T23:45:34;100105.81;;;21.67;30.91
39051;BME280;24805;55.852;37.644;2022-08-21T23:51:01;100108.16;;;21.64;31.21
39051;BME280;24805;55.852;37.644;2022-08-21T23:56:30;100107.47;;;21.57;31.51
